Time;durP1;ratioP1;P1;durP2;ratioP2;P2;SDS_P1;SDS_P2;PMS_P1;PMS_P2;Temp;Humidity;BMP_temperature;BMP_pressure;BME280_temperature;BME280_humidity;BME280_pressure;Samples;Min_cycle;Max_cycle;Signal;HPM_P1;HPM_P2
2021/10/25 00:02:01;;;;;;;;;;;;;;;5.33;82.26;101607.03;1729339;81;20223;-82
2021/10/25 00:04:29;;;;;;;;;;;;;;;5.32;82.44;101599.26;1733174;81;21160;-80
2021/10/25 00:06:55;;;;;;;;;;;;;;;5.34;82.31;101601.31;1726564;82;20156;-81
2021/10/25 00:09:20;;;;;;;;;;;;;;;5.33;82.50;101596.55;1711707;82;20157;-81
2021/10/25 00:11:49;;;;;;;;;;;;;;;5.32;82.57;101600.09;1715481;82;20147;-80
2021/10/25 00:14:16;;;;;;;;;;;;;;;5.34;82.43;101596.08;1729941;81;20128;-82
2021/10/25 00:16:42;;;;;;;;;;;;;;;5.34;82.44;101597.38;1731338;81;21064;-81
2021/10/25 00:19:09;;;;;;;;;;;;;;;5.28;82.67;101601.18;1736542;81;20267;-81
2021/10/25 00:21:37;;;;;;;;;;;;;;;5.34;82.41;101599.53;1736997;82;20978;-82
2021/10/25 00:24:06;;;;;;;;;;;;;;;5.32;82.38;101598.78;1728142;81;20182;-80
2021/10/25 00:26:32;;;;;;;;;;;;;;;5.31;82.24;101601.02;1729713;81;20320;-80
2021/10/25 00:28:58;;;;;;;;;;;;;;;5.33;82.09;101591.75;1708511;82;21943;-78
2021/10/25 00:31:25;;;;;;;;;;;;;;;5.24;82.55;101594.45;1734256;81;20154;-80
2021/10/25 00:33:51;;;;;;;;;;;;;;;5.27;82.35;101591.66;1733394;81;20632;-80
2021/10/25 00:36:18;;;;;;;;;;;;;;;5.23;82.49;101592.75;1734872;82;20699;-81
2021/10/25 00:38:46;;;;;;;;;;;;;;;5.24;82.42;101590.52;1729502;81;20177;-82
2021/10/25 00:41:16;;;;;;;;;;;;;;;5.24;82.48;101589.20;1731820;82;21946;-80
2021/10/25 00:43:42;;;;;;;;;;;;;;;5.20;82.48;101588.98;1735114;81;20715;-82
2021/10/25 00:46:10;;;;;;;;;;;;;;;5.20;82.41;101585.06;1713345;81;21318;-83
2021/10/25 00:48:37;;;;;;;;;;;;;;;5.18;82.36;101584.31;1739600;81;20670;-81
2021/10/25 00:51:09;;;;;;;;;;;;;;;5.20;82.27;101590.30;1745861;81;20186;-81
2021/10/25 00:53:38;;;;;;;;;;;;;;;5.16;82.24;101583.09;1737022;81;21204;-81
2021/10/25 00:56:06;;;;;;;;;;;;;;;5.19;82.02;101582.08;1739276;81;20312;-80
2021/10/25 00:58:32;;;;;;;;;;;;;;;5.16;82.03;101575.71;1737097;81;20185;-80
2021/10/25 01:00:58;;;;;;;;;;;;;;;5.14;81.88;101577.55;1739931;81;20345;-79
2021/10/25 01:03:24;;;;;;;;;;;;;;;5.10;81.80;101571.65;1708860;81;20131;-79
2021/10/25 01:05:51;;;;;;;;;;;;;;;5.06;81.75;101564.05;1746002;80;21329;-78
2021/10/25 01:08:18;;;;;;;;;;;;;;;5.07;81.83;101570.51;1737262;81;20144;-79
2021/10/25 01:10:47;;;;;;;;;;;;;;;5.09;81.86;101566.50;1740756;81;20134;-80
2021/10/25 01:13:18;;;;;;;;;;;;;;;5.08;81.80;101559.12;1740582;81;20160;-80
2021/10/25 01:15:43;;;;;;;;;;;;;;;5.02;82.11;101560.30;1740251;81;20202;-80
2021/10/25 01:18:09;;;;;;;;;;;;;;;5.01;82.33;101552.05;1702176;81;20942;-79
2021/10/25 01:20:38;;;;;;;;;;;;;;;4.94;82.54;101555.95;1744763;81;20168;-80
2021/10/25 01:23:06;;;;;;;;;;;;;;;4.98;82.63;101553.53;1742309;81;20134;-79
2021/10/25 01:25:31;;;;;;;;;;;;;;;5.00;82.53;101555.62;1736851;81;20164;-79
2021/10/25 01:27:57;;;;;;;;;;;;;;;4.98;82.62;101554.84;1705610;81;20611;-80
2021/10/25 01:30:22;;;;;;;;;;;;;;;4.91;82.74;101546.96;1741427;81;21268;-80
2021/10/25 01:32:51;;;;;;;;;;;;;;;5.01;82.75;101548.59;1744443;81;20138;-79
2021/10/25 01:35:18;;;;;;;;;;;;;;;5.04;82.48;101542.71;1744172;81;20174;-80
2021/10/25 01:37:45;;;;;;;;;;;;;;;5.02;82.21;101537.20;1705502;81;20198;-80
2021/10/25 01:40:13;;;;;;;;;;;;;;;5.00;82.31;101537.29;1742880;81;20246;-80
2021/10/25 01:42:38;;;;;;;;;;;;;;;5.04;82.10;101540.09;1709032;81;21447;-81
2021/10/25 01:45:06;;;;;;;;;;;;;;;5.11;81.79;101535.83;1711294;81;21104;-82
2021/10/25 01:47:35;;;;;;;;;;;;;;;5.01;81.70;101528.48;1710033;81;20154;-83
2021/10/25 01:50:05;;;;;;;;;;;;;;;5.00;81.77;101526.82;1743947;81;20293;-82
2021/10/25 01:52:31;;;;;;;;;;;;;;;5.02;81.54;101523.64;1742357;81;20596;-81
2021/10/25 01:54:59;;;;;;;;;;;;;;;4.99;81.51;101522.50;1713203;81;21134;-83
2021/10/25 01:57:28;;;;;;;;;;;;;;;5.00;81.36;101520.27;1739604;80;21140;-82
2021/10/25 01:59:54;;;;;;;;;;;;;;;4.97;81.43;101513.90;1741513;81;20315;-82
2021/10/25 02:02:23;;;;;;;;;;;;;;;4.96;81.43;101510.89;1743785;80;20158;-83
2021/10/25 02:04:50;;;;;;;;;;;;;;;4.99;81.30;101508.58;1742204;81;20162;-82
2021/10/25 02:07:16;;;;;;;;;;;;;;;4.96;81.48;101509.59;1711401;81;21727;-83
2021/10/25 02:09:44;;;;;;;;;;;;;;;4.99;81.26;101506.80;1737800;81;20138;-82
2021/10/25 02:12:14;;;;;;;;;;;;;;;4.88;81.64;101506.56;1707917;81;20208;-82
2021/10/25 02:14:41;;;;;;;;;;;;;;;4.90;81.62;101504.69;1743775;81;20252;-81
2021/10/25 02:17:07;;;;;;;;;;;;;;;4.92;81.46;101504.13;1745485;81;20179;-82
2021/10/25 02:19:33;;;;;;;;;;;;;;;4.90;81.41;101503.38;1738863;81;21785;-82
2021/10/25 02:21:58;;;;;;;;;;;;;;;4.90;81.28;101498.15;1739106;81;20216;-83
2021/10/25 02:24:25;;;;;;;;;;;;;;;4.90;81.24;101498.15;1746350;81;20609;-82
2021/10/25 02:26:51;;;;;;;;;;;;;;;4.78;81.08;101473.50;1742183;81;20204;-82
2021/10/25 02:29:19;;;;;;;;;;;;;;;4.87;81.27;101490.94;1740632;81;20149;-82
2021/10/25 02:31:45;;;;;;;;;;;;;;;4.81;81.56;101492.13;1744413;81;21159;-81
2021/10/25 02:34:16;;;;;;;;;;;;;;;4.79;81.63;101490.06;1738554;81;20629;-80
2021/10/25 02:36:41;;;;;;;;;;;;;;;4.81;81.58;101489.50;1746576;81;20329;-79
2021/10/25 02:39:07;;;;;;;;;;;;;;;4.83;81.44;101487.63;1744324;81;20154;-80
2021/10/25 02:41:34;;;;;;;;;;;;;;;4.77;81.65;101480.98;1743683;81;20647;-80
2021/10/25 02:44:00;;;;;;;;;;;;;;;4.83;81.36;101487.63;1737106;81;21117;-81
2021/10/25 02:46:25;;;;;;;;;;;;;;;4.84;81.24;101485.41;1730531;82;20228;-79
2021/10/25 02:48:51;;;;;;;;;;;;;;;4.74;81.39;101472.00;1737042;80;20147;-80
2021/10/25 02:51:18;;;;;;;;;;;;;;;4.82;80.96;101478.11;1711541;82;20618;-80
2021/10/25 02:53:45;;;;;;;;;;;;;;;4.82;80.90;101472.88;1732413;82;20202;-80
2021/10/25 02:56:12;;;;;;;;;;;;;;;4.83;80.83;101471.93;1731467;82;20224;-80
2021/10/25 02:58:39;;;;;;;;;;;;;;;4.87;80.83;101468.22;1730277;81;20213;-80
2021/10/25 03:01:05;;;;;;;;;;;;;;;4.76;81.00;101467.98;1728951;81;20154;-79
2021/10/25 03:03:32;;;;;;;;;;;;;;;4.78;80.92;101464.81;1727907;81;20252;-78
2021/10/25 03:05:57;;;;;;;;;;;;;;;4.81;80.96;101464.16;1732775;82;20166;-80
2021/10/25 03:08:23;;;;;;;;;;;;;;;4.79;80.89;101456.87;1726963;82;21154;-80
2021/10/25 03:10:50;;;;;;;;;;;;;;;4.79;80.78;101459.97;1733180;82;20140;-80
2021/10/25 03:13:18;;;;;;;;;;;;;;;4.77;81.02;101460.50;1729366;82;20431;-79
2021/10/25 03:15:45;;;;;;;;;;;;;;;4.75;81.04;101461.06;1731099;81;20171;-79
2021/10/25 03:18:14;;;;;;;;;;;;;;;4.77;80.85;101461.80;1732242;81;20253;-80
2021/10/25 03:20:44;;;;;;;;;;;;;;;4.74;81.04;101461.98;1731695;81;21297;-81
2021/10/25 03:23:09;;;;;;;;;;;;;;;4.78;80.98;101463.03;1730564;81;20509;-77
2021/10/25 03:25:35;;;;;;;;;;;;;;;4.84;80.58;101471.02;1709498;82;20170;-81
2021/10/25 03:28:00;;;;;;;;;;;;;;;4.84;80.55;101471.02;1729157;82;20211;-83
2021/10/25 03:30:26;;;;;;;;;;;;;;;4.76;81.03;101467.98;1734875;82;20463;-81
2021/10/25 03:32:52;;;;;;;;;;;;;;;4.84;80.77;101467.91;1725411;81;21166;-81
2021/10/25 03:35:17;;;;;;;;;;;;;;;4.89;80.29;101468.13;1729153;82;20147;-79
2021/10/25 03:37:46;;;;;;;;;;;;;;;4.90;80.27;101461.98;1728471;81;20172;-81
2021/10/25 03:40:12;;;;;;;;;;;;;;;4.88;80.37;101460.76;1729372;82;20229;-80
2021/10/25 03:42:44;;;;;;;;;;;;;;;4.86;80.28;101448.20;1717282;82;20523;-79
2021/10/25 03:45:29;;;;;;;;;;;;;;;4.84;80.38;101452.69;1733629;82;20170;-81
2021/10/25 03:50:30;;;;;;;;;;;;;;;4.66;81.20;101448.88;1734275;81;20202;-81
2021/10/25 03:53:14;;;;;;;;;;;;;;;4.61;81.39;101450.89;1727572;82;20210;-81
2021/10/25 03:56:04;;;;;;;;;;;;;;;4.66;81.50;101447.56;1729098;82;20176;-80
2021/10/25 04:01:26;;;;;;;;;;;;;;;4.83;80.82;101439.22;1734776;82;20177;-79
2021/10/25 04:28:29;;;;;;;;;;;;;;;4.78;80.21;101420.33;1729488;82;20114;-79
2021/10/25 04:30:57;;;;;;;;;;;;;;;4.79;80.23;101412.86;1711943;82;20539;-79
2021/10/25 04:33:23;;;;;;;;;;;;;;;4.81;80.17;101410.99;1731768;82;20146;-78
2021/10/25 04:35:49;;;;;;;;;;;;;;;4.75;80.44;101406.11;1732549;82;20541;-79
2021/10/25 04:38:15;;;;;;;;;;;;;;;4.73;80.26;101404.05;1732315;82;21140;-79
2021/10/25 04:40:40;;;;;;;;;;;;;;;4.68;80.35;101399.91;1728445;82;20404;-81
2021/10/25 04:43:09;;;;;;;;;;;;;;;4.53;80.77;101399.94;1732852;82;20176;-81
2021/10/25 04:45:35;;;;;;;;;;;;;;;4.58;80.83;101393.50;1716748;82;20602;-82
2021/10/25 04:48:01;;;;;;;;;;;;;;;4.54;80.96;101395.94;1718926;82;20194;-83
2021/10/25 04:50:26;;;;;;;;;;;;;;;4.54;81.08;101393.31;1718113;82;21153;-81
2021/10/25 04:52:52;;;;;;;;;;;;;;;4.43;81.44;101394.39;1686965;82;20164;-81
2021/10/25 04:55:19;;;;;;;;;;;;;;;4.37;81.80;101390.81;1720667;82;20518;-81
2021/10/25 04:57:44;;;;;;;;;;;;;;;4.42;81.55;101390.08;1724767;82;20332;-80
2021/10/25 05:00:11;;;;;;;;;;;;;;;4.34;81.79;101381.83;1686342;82;20196;-79
2021/10/25 05:02:37;;;;;;;;;;;;;;;4.27;82.02;101379.55;1688410;82;21135;-82
2021/10/25 05:05:05;;;;;;;;;;;;;;;4.29;82.02;101376.37;1712888;82;21147;-83
2021/10/25 05:07:33;;;;;;;;;;;;;;;4.31;82.03;101377.59;1722190;81;20250;-80
2021/10/25 05:09:59;;;;;;;;;;;;;;;4.29;82.06;101380.77;1717525;82;20303;-82
2021/10/25 05:12:27;;;;;;;;;;;;;;;4.33;82.12;101376.20;1716876;82;20216;-82
2021/10/25 05:14:57;;;;;;;;;;;;;;;4.30;82.16;101370.23;1717510;81;21105;-83
2021/10/25 05:17:26;;;;;;;;;;;;;;;4.31;82.18;101369.28;1714688;82;20279;-83
2021/10/25 05:19:54;;;;;;;;;;;;;;;4.31;81.90;101356.20;1718801;82;20187;-83
2021/10/25 05:22:21;;;;;;;;;;;;;;;4.38;81.86;101368.94;1710472;82;20327;-80
2021/10/25 05:24:47;;;;;;;;;;;;;;;4.37;81.96;101368.10;1721211;82;20216;-83
2021/10/25 05:27:18;;;;;;;;;;;;;;;4.38;81.80;101362.40;1719147;82;21212;-85
2021/10/25 05:29:47;;;;;;;;;;;;;;;4.42;81.56;101362.14;1721466;82;20300;-84
2021/10/25 05:32:13;;;;;;;;;;;;;;;4.48;81.35;101361.80;1714376;82;20169;-83
2021/10/25 05:34:41;;;;;;;;;;;;;;;4.46;81.44;101369.37;1720167;82;20272;-84
2021/10/25 05:37:08;;;;;;;;;;;;;;;4.50;81.35;101369.55;1716043;82;20232;-78
2021/10/25 05:39:37;;;;;;;;;;;;;;;4.47;81.51;101366.67;1713184;82;21125;-77
2021/10/25 05:42:08;;;;;;;;;;;;;;;4.49;81.49;101364.80;1719914;82;20200;-79
2021/10/25 05:44:36;;;;;;;;;;;;;;;4.53;81.40;101362.84;1718175;82;20115;-78
2021/10/25 05:47:07;;;;;;;;;;;;;;;4.58;81.42;101362.59;1711430;82;20286;-79
2021/10/25 05:49:34;;;;;;;;;;;;;;;4.62;81.32;101364.11;1733162;82;20204;-78
2021/10/25 05:52:00;;;;;;;;;;;;;;;4.74;80.84;101365.16;1735590;80;21166;-80
2021/10/25 05:54:26;;;;;;;;;;;;;;;4.68;80.99;101360.66;1733345;82;20221;-79
2021/10/25 05:56:54;;;;;;;;;;;;;;;4.76;80.80;101358.08;1735479;82;20199;-78
2021/10/25 05:59:30;;;;;;;;;;;;;;;4.68;81.09;101356.73;1731641;81;20573;-80
2021/10/25 06:02:10;;;;;;;;;;;;;;;4.67;81.31;101357.66;1732625;82;20208;-80
2021/10/25 06:04:26;;;;;;;;;;;;;;;4.75;81.43;101356.38;1731054;82;20274;-79
2021/10/25 06:06:52;;;;;;;;;;;;;;;4.74;81.27;101355.55;1733225;82;20519;-81
2021/10/25 06:09:18;;;;;;;;;;;;;;;4.80;81.41;101354.34;1729665;81;20122;-80
2021/10/25 06:11:44;;;;;;;;;;;;;;;4.82;81.60;101353.80;1732585;81;20212;-81
2021/10/25 06:14:12;;;;;;;;;;;;;;;4.93;81.51;101357.94;1732316;81;20396;-79
2021/10/25 06:16:42;;;;;;;;;;;;;;;5.01;81.40;101353.08;1730177;82;20162;-84
2021/10/25 06:19:10;;;;;;;;;;;;;;;5.08;81.29;101355.34;1731884;81;20127;-84
2021/10/25 06:21:35;;;;;;;;;;;;;;;5.11;81.45;101357.78;1732358;82;20622;-84
2021/10/25 06:24:03;;;;;;;;;;;;;;;5.15;81.28;101354.89;1732076;81;20574;-81
2021/10/25 06:26:30;;;;;;;;;;;;;;;5.20;81.11;101351.99;1728892;82;20194;-81
2021/10/25 06:28:58;;;;;;;;;;;;;;;5.26;81.09;101350.31;1732081;81;21287;-80
2021/10/25 06:31:26;;;;;;;;;;;;;;;5.30;80.82;101345.28;1732580;81;20204;-80
2021/10/25 06:33:51;;;;;;;;;;;;;;;5.33;80.68;101346.85;1730595;81;20585;-86
2021/10/25 06:36:21;;;;;;;;;;;;;;;5.31;80.83;101348.73;1706867;82;20184;-83
2021/10/25 06:38:53;;;;;;;;;;;;;;;5.38;80.55;101354.82;1734725;82;20142;-82
2021/10/25 06:41:20;;;;;;;;;;;;;;;5.43;80.45;101341.92;1725137;81;20230;-81
2021/10/25 06:43:47;;;;;;;;;;;;;;;5.36;80.84;101342.30;1706678;82;20445;-81
2021/10/25 06:46:15;;;;;;;;;;;;;;;5.40;80.80;101345.08;1739353;81;20204;-83
2021/10/25 06:48:40;;;;;;;;;;;;;;;5.53;80.59;101346.51;1741809;81;20175;-82
2021/10/25 06:51:06;;;;;;;;;;;;;;;5.55;80.51;101349.03;1740613;81;20491;-80
2021/10/25 06:53:35;;;;;;;;;;;;;;;5.51;80.84;101350.15;1710720;82;22857;-81
2021/10/25 06:56:02;;;;;;;;;;;;;;;5.61;80.51;101343.42;1708385;82;20132;-84
2021/10/25 06:58:29;;;;;;;;;;;;;;;5.67;80.49;101339.11;1741950;82;20693;-81
2021/10/25 07:00:59;;;;;;;;;;;;;;;5.72;80.62;101338.34;1733895;82;20203;-82
2021/10/25 07:03:26;;;;;;;;;;;;;;;5.73;80.49;101331.31;1737836;81;20169;-83
2021/10/25 07:05:55;;;;;;;;;;;;;;;5.72;80.71;101330.48;1741607;81;21078;-81
2021/10/25 07:08:21;;;;;;;;;;;;;;;5.77;80.81;101325.44;1736955;81;20898;-82
2021/10/25 07:10:47;;;;;;;;;;;;;;;5.77;81.12;101324.13;1740941;81;20179;-84
2021/10/25 07:13:12;;;;;;;;;;;;;;;5.77;81.42;101329.36;1738987;82;21053;-83
2021/10/25 07:15:46;;;;;;;;;;;;;;;5.81;81.51;101321.22;1739153;82;20405;-82
2021/10/25 07:18:13;;;;;;;;;;;;;;;5.84;81.59;101326.71;1736436;81;20149;-84
2021/10/25 07:23:36;;;;;;;;;;;;;;;6.05;81.25;101320.63;1740611;82;20182;-81
2021/10/25 08:11:49;;;;;;;;;;;;;;;6.78;82.28;101301.83;1741110;82;20137;-77
2021/10/25 08:14:14;;;;;;;;;;;;;;;6.77;82.64;101315.89;1715970;82;20168;-80
2021/10/25 08:16:47;;;;;;;;;;;;;;;6.88;82.47;101306.47;1738583;82;20220;-80
2021/10/25 08:19:27;;;;;;;;;;;;;;;6.86;82.32;101312.30;1739026;82;20127;-79
2021/10/25 08:22:09;;;;;;;;;;;;;;;6.91;82.34;101310.20;1718704;82;20224;-80
2021/10/25 08:24:38;;;;;;;;;;;;;;;6.96;82.29;101309.41;1743582;82;20114;-81
2021/10/25 08:27:04;;;;;;;;;;;;;;;7.03;82.05;101301.49;1744227;82;20172;-81
2021/10/25 08:29:30;;;;;;;;;;;;;;;7.11;81.94;101304.42;1744057;82;20189;-80
2021/10/25 08:32:26;;;;;;;;;;;;;;;7.10;81.28;101305.39;1739936;82;20197;-80
2021/10/25 08:42:17;;;;;;;;;;;;;;;7.32;80.99;101302.59;1744187;82;20186;-81
2021/10/25 08:44:44;;;;;;;;;;;;;;;7.52;80.52;101299.41;1715015;82;21279;-80
2021/10/25 08:47:13;;;;;;;;;;;;;;;7.60;80.16;101300.64;1741244;82;20686;-81
2021/10/25 08:49:42;;;;;;;;;;;;;;;7.68;79.95;101299.64;1745493;81;21118;-80
2021/10/25 08:52:08;;;;;;;;;;;;;;;7.66;79.45;101297.58;1740646;82;20163;-81
2021/10/25 08:54:36;;;;;;;;;;;;;;;7.74;79.34;101297.89;1739435;82;20152;-81
2021/10/25 08:57:02;;;;;;;;;;;;;;;7.87;79.02;101299.99;1746378;82;20186;-80
2021/10/25 08:59:31;;;;;;;;;;;;;;;7.91;78.49;101298.83;1717915;82;20161;-77
2021/10/25 09:02:05;;;;;;;;;;;;;;;7.97;78.25;101298.02;1739609;82;21184;-83
2021/10/25 09:04:30;;;;;;;;;;;;;;;7.99;77.97;101296.97;1745569;82;20356;-80
2021/10/25 09:06:58;;;;;;;;;;;;;;;8.07;78.09;101297.73;1738132;82;20149;-78
2021/10/25 09:09:25;;;;;;;;;;;;;;;8.14;77.75;101289.76;1741508;82;20586;-81
2021/10/25 09:12:08;;;;;;;;;;;;;;;8.19;77.46;101290.25;1714435;82;20170;-79
2021/10/25 09:14:34;;;;;;;;;;;;;;;8.25;77.39;101279.28;1743664;82;21270;-79
2021/10/25 09:17:05;;;;;;;;;;;;;;;8.29;76.77;101286.95;1741036;82;20854;-79
2021/10/25 09:19:32;;;;;;;;;;;;;;;8.37;76.88;101278.00;1747184;82;20190;-80
2021/10/25 09:22:13;;;;;;;;;;;;;;;8.44;76.73;101270.87;1741554;82;20198;-80
2021/10/25 09:24:39;;;;;;;;;;;;;;;8.50;76.33;101272.23;1741004;82;20133;-81
2021/10/25 09:27:07;;;;;;;;;;;;;;;8.57;76.23;101268.16;1745649;82;21120;-79
2021/10/25 09:29:35;;;;;;;;;;;;;;;8.63;76.14;101267.70;1746511;82;20190;-80
2021/10/25 09:32:10;;;;;;;;;;;;;;;8.66;75.60;101265.81;1676713;82;20213;-80
2021/10/25 09:34:44;;;;;;;;;;;;;;;8.74;75.34;101258.16;1737891;82;20707;-81
2021/10/25 09:37:10;;;;;;;;;;;;;;;8.82;75.06;101262.34;1736045;82;20197;-79
2021/10/25 09:39:47;;;;;;;;;;;;;;;8.90;75.03;101254.72;1739722;81;20714;-80
2021/10/25 09:50:10;;;;;;;;;;;;;;;9.17;73.93;101239.04;1743661;81;20154;-79
2021/10/25 09:52:39;;;;;;;;;;;;;;;9.28;73.69;101241.66;1743313;81;21319;-78
2021/10/25 09:55:13;;;;;;;;;;;;;;;9.34;73.29;101234.59;1738969;82;20602;-80
2021/10/25 10:00:16;;;;;;;;;;;;;;;9.57;72.28;101230.61;1740811;82;20122;-80
2021/10/25 10:02:47;;;;;;;;;;;;;;;9.60;72.28;101226.41;1740171;82;20169;-79
2021/10/25 10:05:17;;;;;;;;;;;;;;;9.73;72.35;101225.42;1738546;82;21088;-80
2021/10/25 10:07:44;;;;;;;;;;;;;;;9.91;72.06;101222.58;1743726;82;20702;-77
2021/10/25 10:10:11;;;;;;;;;;;;;;;9.95;71.57;101220.55;1736536;81;20565;-77
2021/10/25 10:12:38;;;;;;;;;;;;;;;10.03;70.25;101212.34;1740366;82;20170;-78
2021/10/25 10:15:08;;;;;;;;;;;;;;;10.15;70.45;101207.03;1721096;82;36512;-78
2021/10/25 10:17:37;;;;;;;;;;;;;;;10.19;69.60;101210.61;1737622;82;21317;-80
2021/10/25 10:20:06;;;;;;;;;;;;;;;10.31;69.41;101199.49;1739416;80;20204;-79
2021/10/25 10:22:33;;;;;;;;;;;;;;;10.29;68.76;101198.80;1717239;82;20146;-79
2021/10/25 10:24:58;;;;;;;;;;;;;;;10.38;68.53;101191.95;1740239;82;20546;-79
2021/10/25 10:27:24;;;;;;;;;;;;;;;10.39;67.64;101193.14;1741331;82;20235;-78
2021/10/25 10:30:01;;;;;;;;;;;;;;;10.45;67.48;101193.58;1744932;82;21178;-79
2021/10/25 10:32:33;;;;;;;;;;;;;;;10.55;67.28;101191.81;1741632;82;20130;-79
2021/10/25 10:35:03;;;;;;;;;;;;;;;10.66;66.46;101185.16;1742080;81;20316;-78
2021/10/25 10:37:32;;;;;;;;;;;;;;;10.70;66.14;101181.76;1743080;82;20205;-79
2021/10/25 10:40:06;;;;;;;;;;;;;;;10.74;66.70;101178.72;1741403;82;20276;-79
2021/10/25 10:42:36;;;;;;;;;;;;;;;10.72;66.34;101174.53;1742283;82;21326;-78
2021/10/25 10:45:08;;;;;;;;;;;;;;;10.91;66.30;101167.19;1740518;82;20181;-78
2021/10/25 10:47:51;;;;;;;;;;;;;;;11.01;65.69;101165.41;1742269;82;20333;-79
2021/10/25 10:51:01;;;;;;;;;;;;;;;11.05;64.63;101157.56;1740817;82;20493;-78
2021/10/25 10:53:13;;;;;;;;;;;;;;;11.14;64.29;101152.80;1721248;82;20288;-79
2021/10/25 10:55:41;;;;;;;;;;;;;;;11.30;64.15;101148.80;1737354;82;20238;-79
2021/10/25 11:00:40;;;;;;;;;;;;;;;11.46;63.57;101141.64;1737820;82;20145;-77
2021/10/25 11:03:19;;;;;;;;;;;;;;;11.60;63.47;101140.41;1743607;82;20576;-78
2021/10/25 11:06:05;;;;;;;;;;;;;;;11.71;63.03;101132.33;1736522;82;20161;-80
2021/10/25 11:08:37;;;;;;;;;;;;;;;11.86;62.13;101136.22;1737962;82;21191;-78
2021/10/25 11:11:07;;;;;;;;;;;;;;;11.97;62.32;101123.86;1742755;80;20488;-79
2021/10/25 11:13:53;;;;;;;;;;;;;;;12.06;62.25;101130.95;1742419;81;20194;-77
2021/10/25 11:16:34;;;;;;;;;;;;;;;12.16;61.68;101123.81;1738893;81;20574;-78
2021/10/25 11:18:56;;;;;;;;;;;;;;;12.23;61.91;101113.97;1739482;82;20173;-77
2021/10/25 11:21:33;;;;;;;;;;;;;;;12.21;61.12;101105.70;1741783;82;21891;-77
2021/10/25 11:24:13;;;;;;;;;;;;;;;12.34;61.26;101105.38;1740568;82;20130;-78
2021/10/25 11:26:44;;;;;;;;;;;;;;;12.44;60.69;101104.52;1739172;82;20306;-78
2021/10/25 11:29:16;;;;;;;;;;;;;;;12.50;60.62;101101.28;1714351;82;20159;-79
2021/10/25 11:31:46;;;;;;;;;;;;;;;12.50;60.56;101109.23;1736790;82;20193;-79
2021/10/25 11:34:22;;;;;;;;;;;;;;;12.60;59.98;101103.89;1741009;82;20150;-79
2021/10/25 11:37:01;;;;;;;;;;;;;;;12.59;59.48;101095.61;1740419;82;20194;-80
2021/10/25 11:39:40;;;;;;;;;;;;;;;12.66;59.47;101094.03;1743852;82;20126;-79
2021/10/25 11:42:09;;;;;;;;;;;;;;;12.59;58.95;101092.97;1738100;82;20127;-77
2021/10/25 11:44:35;;;;;;;;;;;;;;;12.73;58.94;101088.50;1745166;82;20118;-77
2021/10/25 11:47:02;;;;;;;;;;;;;;;12.81;59.33;101080.63;1737732;82;21073;-79
2021/10/25 11:49:28;;;;;;;;;;;;;;;12.84;59.42;101085.64;1731775;82;20154;-77
2021/10/25 11:51:55;;;;;;;;;;;;;;;12.83;58.63;101083.95;1731166;82;20209;-78
2021/10/25 11:54:21;;;;;;;;;;;;;;;12.89;58.72;101082.55;1732973;80;20199;-78
2021/10/25 11:56:51;;;;;;;;;;;;;;;12.98;58.60;101075.53;1735816;81;20222;-83
2021/10/25 11:59:18;;;;;;;;;;;;;;;13.02;58.41;101080.86;1731478;81;21104;-77
2021/10/25 12:01:46;;;;;;;;;;;;;;;13.01;58.30;101080.53;1729884;82;20202;-78
2021/10/25 12:04:12;;;;;;;;;;;;;;;13.08;58.97;101071.83;1731159;81;20212;-80
2021/10/25 12:06:37;;;;;;;;;;;;;;;13.19;57.63;101072.11;1729643;81;20333;-80
2021/10/25 12:09:10;;;;;;;;;;;;;;;13.07;57.81;101064.03;1734702;81;20224;-80
2021/10/25 12:14:11;;;;;;;;;;;;;;;13.23;58.25;101056.22;1707021;82;20208;-79
2021/10/25 12:16:48;;;;;;;;;;;;;;;13.29;58.17;101058.27;1711473;82;20298;-83
2021/10/25 12:19:14;;;;;;;;;;;;;;;13.33;57.75;101048.67;1731593;81;20149;-81
2021/10/25 12:21:42;;;;;;;;;;;;;;;13.39;56.87;101043.65;1731183;81;20186;-79
2021/10/25 12:24:12;;;;;;;;;;;;;;;13.42;56.68;101043.81;1709749;82;20962;-81
2021/10/25 12:26:41;;;;;;;;;;;;;;;13.51;56.86;101041.57;1726983;81;20582;-79
2021/10/25 12:29:17;;;;;;;;;;;;;;;13.65;56.88;101038.36;1733557;82;20179;-83
2021/10/25 12:31:46;;;;;;;;;;;;;;;13.67;56.59;101036.05;1710977;82;20229;-80
2021/10/25 12:34:11;;;;;;;;;;;;;;;13.75;56.35;101039.61;1729780;82;20175;-79
2021/10/25 12:36:39;;;;;;;;;;;;;;;13.75;55.93;101041.41;1732842;81;21153;-78
2021/10/25 12:39:09;;;;;;;;;;;;;;;13.87;56.00;101039.34;1729170;82;20215;-77
2021/10/25 12:41:51;;;;;;;;;;;;;;;13.98;55.71;101038.61;1714610;82;20986;-78
2021/10/25 12:44:33;;;;;;;;;;;;;;;14.11;55.41;101032.04;1705822;82;20827;-83
2021/10/25 12:47:14;;;;;;;;;;;;;;;14.15;55.23;101022.75;1733990;80;20110;-81
2021/10/25 12:49:49;;;;;;;;;;;;;;;14.35;55.21;101029.98;1730128;81;21127;-81
2021/10/25 12:52:15;;;;;;;;;;;;;;;14.43;54.88;101023.87;1734498;81;20178;-83
2021/10/25 12:54:43;;;;;;;;;;;;;;;14.55;54.79;101019.94;1668320;82;20235;-82
2021/10/25 12:57:20;;;;;;;;;;;;;;;14.71;54.17;101012.06;1731905;81;20179;-86
2021/10/25 13:00:09;;;;;;;;;;;;;;;14.88;53.59;101013.41;1733401;82;20206;-82
2021/10/25 13:02:42;;;;;;;;;;;;;;;15.00;53.62;101006.78;1732033;82;21188;-82
2021/10/25 13:05:16;;;;;;;;;;;;;;;15.10;53.71;101008.45;1728507;82;20525;-81
2021/10/25 13:07:48;;;;;;;;;;;;;;;15.26;53.07;101005.31;1735124;82;20203;-86
2021/10/25 13:10:17;;;;;;;;;;;;;;;15.36;52.80;101001.15;1733847;82;20949;-82
2021/10/25 13:12:42;;;;;;;;;;;;;;;15.42;52.81;101007.13;1732668;81;20170;-81
2021/10/25 13:15:12;;;;;;;;;;;;;;;15.35;52.90;100996.84;1714282;82;20570;-80
2021/10/25 13:17:38;;;;;;;;;;;;;;;15.39;52.86;100999.48;1732297;81;20276;-82
2021/10/25 13:20:05;;;;;;;;;;;;;;;15.53;52.83;100995.83;1704161;81;20367;-85
2021/10/25 13:22:33;;;;;;;;;;;;;;;15.64;52.69;100996.80;1707697;82;20209;-83
2021/10/25 13:24:58;;;;;;;;;;;;;;;15.79;51.91;100994.33;1735243;82;20902;-83
2021/10/25 13:27:27;;;;;;;;;;;;;;;15.88;52.10;100999.11;1734027;82;21180;-83
2021/10/25 13:29:52;;;;;;;;;;;;;;;15.96;51.07;100997.27;1731157;81;20649;-84
2021/10/25 13:32:21;;;;;;;;;;;;;;;16.09;50.71;100995.39;1736222;82;20233;-84
2021/10/25 13:34:48;;;;;;;;;;;;;;;16.26;50.97;101006.01;1735306;82;20546;-82
2021/10/25 13:37:15;;;;;;;;;;;;;;;16.35;50.34;101000.98;1731613;82;20134;-83
2021/10/25 13:39:41;;;;;;;;;;;;;;;16.54;49.25;101001.56;1734057;82;21093;-83
2021/10/25 13:42:09;;;;;;;;;;;;;;;18.17;47.30;100994.56;1705489;82;20268;-84
2021/10/25 13:44:35;;;;;;;;;;;;;;;25.21;35.29;101000.34;1735152;81;20146;-90
2021/10/25 13:47:01;;;;;;;;;;;;;;;27.92;28.96;100996.30;1729424;81;20197;-83
2021/10/25 13:49:29;;;;;;;;;;;;;;;29.93;26.28;101000.39;1738731;81;20127;-83
2021/10/25 13:51:57;;;;;;;;;;;;;;;30.54;23.51;100996.27;1735454;82;21207;-85
2021/10/25 13:54:22;;;;;;;;;;;;;;;31.71;22.39;100993.25;1736244;82;20138;-81
2021/10/25 13:56:49;;;;;;;;;;;;;;;32.63;22.14;100992.55;1735130;81;20244;-80
2021/10/25 13:59:15;;;;;;;;;;;;;;;32.16;20.36;100991.48;1730473;82;21018;-81
2021/10/25 14:01:42;;;;;;;;;;;;;;;32.54;20.45;100986.33;1733229;82;20589;-79
2021/10/25 14:04:13;;;;;;;;;;;;;;;32.14;20.13;100985.46;1729542;81;21155;-80
2021/10/25 14:06:35;;;;;;;;;;;;;;;32.54;20.29;100979.49;1714720;82;20157;-81
2021/10/25 14:09:03;;;;;;;;;;;;;;;32.02;19.69;100984.94;1728962;82;20208;-80
2021/10/25 14:11:37;;;;;;;;;;;;;;;31.25;20.29;100976.96;1730824;81;20658;-79
2021/10/25 14:14:10;;;;;;;;;;;;;;;31.50;20.47;100974.72;1732845;81;20165;-77
2021/10/25 14:16:49;;;;;;;;;;;;;;;30.87;20.91;100970.94;1726221;82;20505;-77
2021/10/25 14:19:09;;;;;;;;;;;;;;;30.56;21.31;100973.63;1724510;82;20152;-81
2021/10/25 14:21:36;;;;;;;;;;;;;;;29.81;22.01;100973.92;1731089;81;20348;-80
2021/10/25 14:24:04;;;;;;;;;;;;;;;29.66;22.28;100976.82;1735410;82;20245;-81
2021/10/25 14:26:29;;;;;;;;;;;;;;;29.25;22.68;100969.75;1736568;81;20222;-80
2021/10/25 14:28:55;;;;;;;;;;;;;;;28.65;23.22;100965.70;1731451;81;21156;-81
2021/10/25 14:31:21;;;;;;;;;;;;;;;27.73;24.31;100963.22;1734034;80;20192;-85
2021/10/25 14:33:50;;;;;;;;;;;;;;;28.05;24.34;100953.08;1734440;82;20146;-79